sensor_id;sensor_type;location;lat;lon;timestamp;P1;durP1;ratioP1;P2;durP2;ratioP2
11921;SDS011;6021;51.182;3.160;2023-10-08T00:02:08;7.13;;;3.83;;
11921;SDS011;6021;51.182;3.160;2023-10-08T00:04:37;6.13;;;4.00;;
11921;SDS011;6021;51.182;3.160;2023-10-08T00:07:06;5.57;;;3.73;;
11921;SDS011;6021;51.182;3.160;2023-10-08T00:09:35;4.93;;;4.00;;
11921;SDS011;6021;51.182;3.160;2023-10-08T00:12:03;7.10;;;3.97;;
11921;SDS011;6021;51.182;3.160;2023-10-08T00:14:33;6.20;;;4.10;;
11921;SDS011;6021;51.182;3.160;2023-10-08T00:17:03;5.60;;;4.27;;
11921;SDS011;6021;51.182;3.160;2023-10-08T00:19:33;7.23;;;4.07;;
11921;SDS011;6021;51.182;3.160;2023-10-08T00:22:03;7.50;;;4.60;;
11921;SDS011;6021;51.182;3.160;2023-10-08T00:24:33;6.47;;;3.90;;
11921;SDS011;6021;51.182;3.160;2023-10-08T00:27:01;4.40;;;3.57;;
11921;SDS011;6021;51.182;3.160;2023-10-08T00:29:31;5.77;;;4.10;;
11921;SDS011;6021;51.182;3.160;2023-10-08T00:32:00;5.63;;;4.20;;
11921;SDS011;6021;51.182;3.160;2023-10-08T00:34:30;7.53;;;3.97;;
11921;SDS011;6021;51.182;3.160;2023-10-08T00:36:58;7.13;;;3.87;;
11921;SDS011;6021;51.182;3.160;2023-10-08T00:39:27;4.90;;;3.50;;
11921;SDS011;6021;51.182;3.160;2023-10-08T00:41:56;6.07;;;3.80;;
11921;SDS011;6021;51.182;3.160;2023-10-08T00:44:25;6.33;;;4.30;;
11921;SDS011;6021;51.182;3.160;2023-10-08T00:46:57;6.20;;;4.43;;
11921;SDS011;6021;51.182;3.160;2023-10-08T00:49:27;6.23;;;4.37;;
11921;SDS011;6021;51.182;3.160;2023-10-08T00:52:04;6.00;;;3.90;;
11921;SDS011;6021;51.182;3.160;2023-10-08T00:54:38;6.57;;;4.30;;
11921;SDS011;6021;51.182;3.160;2023-10-08T00:57:26;6.87;;;4.33;;
11921;SDS011;6021;51.182;3.160;2023-10-08T00:59:56;7.60;;;4.23;;
11921;SDS011;6021;51.182;3.160;2023-10-08T01:02:26;6.20;;;4.03;;
11921;SDS011;6021;51.182;3.160;2023-10-08T01:04:57;8.90;;;4.07;;
11921;SDS011;6021;51.182;3.160;2023-10-08T01:07:26;6.07;;;3.97;;
11921;SDS011;6021;51.182;3.160;2023-10-08T01:09:57;7.07;;;4.13;;
11921;SDS011;6021;51.182;3.160;2023-10-08T01:12:28;9.30;;;4.80;;
11921;SDS011;6021;51.182;3.160;2023-10-08T01:15:01;6.10;;;4.50;;
11921;SDS011;6021;51.182;3.160;2023-10-08T01:17:34;6.60;;;4.30;;
11921;SDS011;6021;51.182;3.160;2023-10-08T01:20:04;6.87;;;4.33;;
11921;SDS011;6021;51.182;3.160;2023-10-08T01:22:38;7.83;;;4.43;;
11921;SDS011;6021;51.182;3.160;2023-10-08T01:25:07;7.03;;;4.93;;
11921;SDS011;6021;51.182;3.160;2023-10-08T01:27:36;7.33;;;4.90;;
11921;SDS011;6021;51.182;3.160;2023-10-08T01:30:05;8.23;;;4.70;;
11921;SDS011;6021;51.182;3.160;2023-10-08T01:32:37;7.07;;;5.13;;
11921;SDS011;6021;51.182;3.160;2023-10-08T01:35:07;7.10;;;4.50;;
11921;SDS011;6021;51.182;3.160;2023-10-08T01:37:37;7.70;;;4.60;;
11921;SDS011;6021;51.182;3.160;2023-10-08T01:40:07;7.80;;;4.87;;
11921;SDS011;6021;51.182;3.160;2023-10-08T01:42:36;7.40;;;4.80;;
11921;SDS011;6021;51.182;3.160;2023-10-08T01:45:06;7.57;;;4.70;;
11921;SDS011;6021;51.182;3.160;2023-10-08T01:47:36;8.20;;;4.93;;
11921;SDS011;6021;51.182;3.160;2023-10-08T01:50:05;8.43;;;4.70;;
11921;SDS011;6021;51.182;3.160;2023-10-08T01:52:35;8.17;;;4.93;;
11921;SDS011;6021;51.182;3.160;2023-10-08T01:55:05;8.10;;;5.40;;
11921;SDS011;6021;51.182;3.160;2023-10-08T01:57:36;8.13;;;4.87;;
11921;SDS011;6021;51.182;3.160;2023-10-08T02:00:06;7.63;;;5.10;;
11921;SDS011;6021;51.182;3.160;2023-10-08T02:02:35;7.87;;;5.00;;
11921;SDS011;6021;51.182;3.160;2023-10-08T02:05:06;6.00;;;4.33;;
11921;SDS011;6021;51.182;3.160;2023-10-08T02:07:34;7.40;;;4.63;;
11921;SDS011;6021;51.182;3.160;2023-10-08T02:10:03;7.37;;;4.60;;
11921;SDS011;6021;51.182;3.160;2023-10-08T02:12:31;6.87;;;4.73;;
11921;SDS011;6021;51.182;3.160;2023-10-08T02:15:01;8.13;;;5.30;;
11921;SDS011;6021;51.182;3.160;2023-10-08T02:17:30;7.00;;;5.07;;
11921;SDS011;6021;51.182;3.160;2023-10-08T02:19:59;9.37;;;5.40;;
11921;SDS011;6021;51.182;3.160;2023-10-08T02:22:29;8.90;;;5.33;;
11921;SDS011;6021;51.182;3.160;2023-10-08T02:24:59;8.30;;;5.20;;
11921;SDS011;6021;51.182;3.160;2023-10-08T02:27:28;8.93;;;5.60;;
11921;SDS011;6021;51.182;3.160;2023-10-08T02:29:58;9.87;;;5.80;;
11921;SDS011;6021;51.182;3.160;2023-10-08T02:32:28;11.10;;;5.47;;
11921;SDS011;6021;51.182;3.160;2023-10-08T02:34:56;7.80;;;4.70;;
11921;SDS011;6021;51.182;3.160;2023-10-08T02:37:25;8.77;;;5.00;;
11921;SDS011;6021;51.182;3.160;2023-10-08T02:39:54;9.90;;;5.50;;
11921;SDS011;6021;51.182;3.160;2023-10-08T02:42:24;9.87;;;5.27;;
11921;SDS011;6021;51.182;3.160;2023-10-08T02:44:52;7.10;;;5.30;;
11921;SDS011;6021;51.182;3.160;2023-10-08T02:47:22;8.57;;;5.57;;
11921;SDS011;6021;51.182;3.160;2023-10-08T02:49:51;8.60;;;4.80;;
11921;SDS011;6021;51.182;3.160;2023-10-08T02:52:19;8.50;;;5.27;;
11921;SDS011;6021;51.182;3.160;2023-10-08T02:54:47;9.50;;;5.20;;
11921;SDS011;6021;51.182;3.160;2023-10-08T02:57:17;8.60;;;5.20;;
11921;SDS011;6021;51.182;3.160;2023-10-08T02:59:47;8.63;;;5.57;;
11921;SDS011;6021;51.182;3.160;2023-10-08T03:02:15;7.17;;;4.90;;
11921;SDS011;6021;51.182;3.160;2023-10-08T03:04:48;7.60;;;5.00;;
11921;SDS011;6021;51.182;3.160;2023-10-08T03:07:19;7.47;;;5.33;;
11921;SDS011;6021;51.182;3.160;2023-10-08T03:09:48;8.57;;;5.40;;
11921;SDS011;6021;51.182;3.160;2023-10-08T03:12:17;8.47;;;5.43;;
11921;SDS011;6021;51.182;3.160;2023-10-08T03:14:47;8.40;;;5.57;;
11921;SDS011;6021;51.182;3.160;2023-10-08T03:17:30;8.50;;;5.33;;
11921;SDS011;6021;51.182;3.160;2023-10-08T03:20:00;7.93;;;5.20;;
11921;SDS011;6021;51.182;3.160;2023-10-08T03:22:46;9.43;;;5.97;;
11921;SDS011;6021;51.182;3.160;2023-10-08T03:25:14;10.13;;;5.83;;
11921;SDS011;6021;51.182;3.160;2023-10-08T03:27:44;8.30;;;5.73;;
11921;SDS011;6021;51.182;3.160;2023-10-08T03:30:12;9.10;;;5.77;;
11921;SDS011;6021;51.182;3.160;2023-10-08T03:32:43;8.03;;;5.43;;
11921;SDS011;6021;51.182;3.160;2023-10-08T03:35:12;7.10;;;5.37;;
11921;SDS011;6021;51.182;3.160;2023-10-08T03:37:40;8.33;;;5.57;;
11921;SDS011;6021;51.182;3.160;2023-10-08T03:40:10;8.33;;;5.90;;
11921;SDS011;6021;51.182;3.160;2023-10-08T03:43:15;9.13;;;5.90;;
11921;SDS011;6021;51.182;3.160;2023-10-08T03:45:54;10.63;;;6.37;;
11921;SDS011;6021;51.182;3.160;2023-10-08T03:48:24;7.70;;;5.40;;
11921;SDS011;6021;51.182;3.160;2023-10-08T03:50:53;9.93;;;5.97;;
11921;SDS011;6021;51.182;3.160;2023-10-08T03:53:26;9.57;;;6.30;;
11921;SDS011;6021;51.182;3.160;2023-10-08T03:55:55;10.73;;;5.80;;
11921;SDS011;6021;51.182;3.160;2023-10-08T03:58:25;8.43;;;6.07;;
11921;SDS011;6021;51.182;3.160;2023-10-08T04:00:58;10.07;;;6.30;;
11921;SDS011;6021;51.182;3.160;2023-10-08T04:03:37;7.40;;;5.70;;
11921;SDS011;6021;51.182;3.160;2023-10-08T04:06:19;9.70;;;6.00;;
11921;SDS011;6021;51.182;3.160;2023-10-08T04:09:02;9.30;;;5.60;;
11921;SDS011;6021;51.182;3.160;2023-10-08T04:11:38;8.57;;;5.70;;
11921;SDS011;6021;51.182;3.160;2023-10-08T04:14:24;8.97;;;5.73;;
11921;SDS011;6021;51.182;3.160;2023-10-08T04:16:54;10.03;;;6.30;;
11921;SDS011;6021;51.182;3.160;2023-10-08T04:19:23;10.87;;;6.17;;
11921;SDS011;6021;51.182;3.160;2023-10-08T04:21:53;9.23;;;5.87;;
11921;SDS011;6021;51.182;3.160;2023-10-08T04:24:25;10.07;;;6.47;;
11921;SDS011;6021;51.182;3.160;2023-10-08T04:26:59;9.47;;;5.83;;
11921;SDS011;6021;51.182;3.160;2023-10-08T04:29:32;8.70;;;5.70;;
11921;SDS011;6021;51.182;3.160;2023-10-08T04:32:03;9.47;;;6.30;;
11921;SDS011;6021;51.182;3.160;2023-10-08T04:34:36;9.80;;;5.73;;
11921;SDS011;6021;51.182;3.160;2023-10-08T04:37:05;11.37;;;6.17;;
11921;SDS011;6021;51.182;3.160;2023-10-08T04:39:35;8.33;;;5.60;;
11921;SDS011;6021;51.182;3.160;2023-10-08T04:42:05;9.30;;;5.97;;
11921;SDS011;6021;51.182;3.160;2023-10-08T04:44:35;8.27;;;6.00;;
11921;SDS011;6021;51.182;3.160;2023-10-08T04:47:06;10.50;;;6.90;;
11921;SDS011;6021;51.182;3.160;2023-10-08T04:49:35;9.33;;;6.03;;
11921;SDS011;6021;51.182;3.160;2023-10-08T04:52:05;11.10;;;5.93;;
11921;SDS011;6021;51.182;3.160;2023-10-08T04:54:36;9.07;;;6.23;;
11921;SDS011;6021;51.182;3.160;2023-10-08T04:57:07;9.13;;;5.80;;
11921;SDS011;6021;51.182;3.160;2023-10-08T04:59:37;9.27;;;6.37;;
11921;SDS011;6021;51.182;3.160;2023-10-08T05:02:05;8.30;;;5.97;;
11921;SDS011;6021;51.182;3.160;2023-10-08T05:04:48;5.33;;;4.67;;
11921;SDS011;6021;51.182;3.160;2023-10-08T05:07:21;9.37;;;6.37;;
11921;SDS011;6021;51.182;3.160;2023-10-08T05:09:55;8.47;;;6.07;;
11921;SDS011;6021;51.182;3.160;2023-10-08T05:12:31;10.90;;;6.53;;
11921;SDS011;6021;51.182;3.160;2023-10-08T05:15:01;9.33;;;6.50;;
11921;SDS011;6021;51.182;3.160;2023-10-08T05:17:44;10.20;;;6.67;;
11921;SDS011;6021;51.182;3.160;2023-10-08T05:20:15;8.27;;;5.93;;
11921;SDS011;6021;51.182;3.160;2023-10-08T05:23:13;9.40;;;5.83;;
11921;SDS011;6021;51.182;3.160;2023-10-08T05:26:11;10.10;;;6.17;;
11921;SDS011;6021;51.182;3.160;2023-10-08T05:28:41;9.60;;;6.67;;
11921;SDS011;6021;51.182;3.160;2023-10-08T05:31:28;9.87;;;6.37;;
11921;SDS011;6021;51.182;3.160;2023-10-08T05:34:13;12.00;;;7.33;;
11921;SDS011;6021;51.182;3.160;2023-10-08T05:36:44;13.77;;;7.00;;
11921;SDS011;6021;51.182;3.160;2023-10-08T05:39:29;12.77;;;6.80;;
11921;SDS011;6021;51.182;3.160;2023-10-08T05:41:59;10.90;;;6.83;;
11921;SDS011;6021;51.182;3.160;2023-10-08T05:44:46;9.97;;;6.87;;
11921;SDS011;6021;51.182;3.160;2023-10-08T05:47:16;10.63;;;6.50;;
11921;SDS011;6021;51.182;3.160;2023-10-08T05:50:01;9.77;;;6.43;;
11921;SDS011;6021;51.182;3.160;2023-10-08T05:52:44;10.30;;;6.50;;
11921;SDS011;6021;51.182;3.160;2023-10-08T05:55:20;10.53;;;6.37;;
11921;SDS011;6021;51.182;3.160;2023-10-08T05:58:00;9.03;;;6.17;;
11921;SDS011;6021;51.182;3.160;2023-10-08T06:00:47;10.93;;;6.37;;
11921;SDS011;6021;51.182;3.160;2023-10-08T06:03:34;9.30;;;6.17;;
11921;SDS011;6021;51.182;3.160;2023-10-08T06:06:04;8.03;;;6.17;;
11921;SDS011;6021;51.182;3.160;2023-10-08T06:08:41;10.70;;;6.57;;
11921;SDS011;6021;51.182;3.160;2023-10-08T06:11:27;8.13;;;6.53;;
11921;SDS011;6021;51.182;3.160;2023-10-08T06:14:00;7.57;;;5.73;;
11921;SDS011;6021;51.182;3.160;2023-10-08T06:16:30;9.43;;;6.60;;
11921;SDS011;6021;51.182;3.160;2023-10-08T06:19:00;10.63;;;6.30;;
11921;SDS011;6021;51.182;3.160;2023-10-08T06:21:28;10.50;;;6.37;;
11921;SDS011;6021;51.182;3.160;2023-10-08T06:23:56;8.40;;;5.60;;
11921;SDS011;6021;51.182;3.160;2023-10-08T06:26:25;8.90;;;5.87;;
11921;SDS011;6021;51.182;3.160;2023-10-08T06:28:55;9.73;;;6.03;;
11921;SDS011;6021;51.182;3.160;2023-10-08T06:31:25;10.33;;;6.10;;
11921;SDS011;6021;51.182;3.160;2023-10-08T06:33:54;8.20;;;5.70;;
11921;SDS011;6021;51.182;3.160;2023-10-08T06:36:24;10.87;;;6.80;;
11921;SDS011;6021;51.182;3.160;2023-10-08T06:38:53;9.00;;;6.50;;
11921;SDS011;6021;51.182;3.160;2023-10-08T06:41:22;8.90;;;6.17;;
11921;SDS011;6021;51.182;3.160;2023-10-08T06:43:52;10.00;;;6.40;;
11921;SDS011;6021;51.182;3.160;2023-10-08T06:46:28;11.87;;;6.10;;
11921;SDS011;6021;51.182;3.160;2023-10-08T06:49:02;9.27;;;6.57;;
11921;SDS011;6021;51.182;3.160;2023-10-08T06:51:32;9.67;;;6.47;;
11921;SDS011;6021;51.182;3.160;2023-10-08T06:54:01;6.03;;;5.43;;
11921;SDS011;6021;51.182;3.160;2023-10-08T06:56:30;8.27;;;5.83;;
11921;SDS011;6021;51.182;3.160;2023-10-08T06:58:58;9.90;;;6.07;;
11921;SDS011;6021;51.182;3.160;2023-10-08T07:01:28;10.53;;;6.13;;
11921;SDS011;6021;51.182;3.160;2023-10-08T07:03:58;9.77;;;6.00;;
11921;SDS011;6021;51.182;3.160;2023-10-08T07:06:33;9.00;;;6.00;;
11921;SDS011;6021;51.182;3.160;2023-10-08T07:09:03;10.03;;;6.30;;
11921;SDS011;6021;51.182;3.160;2023-10-08T07:11:32;9.37;;;6.20;;
11921;SDS011;6021;51.182;3.160;2023-10-08T07:14:01;8.40;;;6.00;;
11921;SDS011;6021;51.182;3.160;2023-10-08T07:16:31;8.37;;;5.80;;
11921;SDS011;6021;51.182;3.160;2023-10-08T07:18:59;7.37;;;6.13;;
11921;SDS011;6021;51.182;3.160;2023-10-08T07:21:32;8.63;;;6.33;;
11921;SDS011;6021;51.182;3.160;2023-10-08T07:24:02;10.73;;;6.50;;
11921;SDS011;6021;51.182;3.160;2023-10-08T07:26:32;8.90;;;6.70;;
11921;SDS011;6021;51.182;3.160;2023-10-08T07:29:03;10.87;;;6.63;;
11921;SDS011;6021;51.182;3.160;2023-10-08T07:31:35;8.93;;;5.67;;
11921;SDS011;6021;51.182;3.160;2023-10-08T07:34:04;11.50;;;6.57;;
11921;SDS011;6021;51.182;3.160;2023-10-08T07:36:52;13.97;;;7.17;;
11921;SDS011;6021;51.182;3.160;2023-10-08T07:39:22;10.23;;;7.00;;
11921;SDS011;6021;51.182;3.160;2023-10-08T07:41:55;8.17;;;5.97;;
11921;SDS011;6021;51.182;3.160;2023-10-08T07:44:23;9.87;;;7.10;;
11921;SDS011;6021;51.182;3.160;2023-10-08T07:46:54;8.70;;;7.07;;
11921;SDS011;6021;51.182;3.160;2023-10-08T07:49:25;10.57;;;6.77;;
11921;SDS011;6021;51.182;3.160;2023-10-08T07:51:55;11.47;;;6.80;;
11921;SDS011;6021;51.182;3.160;2023-10-08T07:54:26;11.33;;;7.30;;
11921;SDS011;6021;51.182;3.160;2023-10-08T07:56:55;12.43;;;7.33;;
11921;SDS011;6021;51.182;3.160;2023-10-08T07:59:28;8.73;;;6.70;;
11921;SDS011;6021;51.182;3.160;2023-10-08T08:01:56;10.63;;;6.80;;
11921;SDS011;6021;51.182;3.160;2023-10-08T08:04:26;9.93;;;6.80;;
11921;SDS011;6021;51.182;3.160;2023-10-08T08:06:56;13.10;;;7.40;;
11921;SDS011;6021;51.182;3.160;2023-10-08T08:09:26;11.03;;;7.53;;
11921;SDS011;6021;51.182;3.160;2023-10-08T08:11:55;9.63;;;7.90;;
11921;SDS011;6021;51.182;3.160;2023-10-08T08:14:24;9.70;;;7.37;;
11921;SDS011;6021;51.182;3.160;2023-10-08T08:16:52;13.97;;;8.17;;
11921;SDS011;6021;51.182;3.160;2023-10-08T08:19:21;12.13;;;7.57;;
11921;SDS011;6021;51.182;3.160;2023-10-08T08:21:50;10.33;;;7.83;;
11921;SDS011;6021;51.182;3.160;2023-10-08T08:24:19;12.57;;;8.40;;
11921;SDS011;6021;51.182;3.160;2023-10-08T08:26:57;12.17;;;7.73;;
11921;SDS011;6021;51.182;3.160;2023-10-08T08:29:30;11.87;;;7.60;;
11921;SDS011;6021;51.182;3.160;2023-10-08T08:32:00;9.90;;;7.30;;
11921;SDS011;6021;51.182;3.160;2023-10-08T08:34:30;10.90;;;7.60;;
11921;SDS011;6021;51.182;3.160;2023-10-08T08:36:58;11.37;;;8.07;;
11921;SDS011;6021;51.182;3.160;2023-10-08T08:39:27;11.50;;;8.20;;
11921;SDS011;6021;51.182;3.160;2023-10-08T08:41:59;14.63;;;8.20;;
11921;SDS011;6021;51.182;3.160;2023-10-08T08:44:28;14.13;;;7.40;;
11921;SDS011;6021;51.182;3.160;2023-10-08T08:46:58;9.60;;;7.10;;
11921;SDS011;6021;51.182;3.160;2023-10-08T08:49:29;12.40;;;7.67;;
11921;SDS011;6021;51.182;3.160;2023-10-08T08:52:02;11.07;;;6.97;;
11921;SDS011;6021;51.182;3.160;2023-10-08T08:54:30;8.57;;;6.20;;
11921;SDS011;6021;51.182;3.160;2023-10-08T08:56:59;11.70;;;7.50;;
11921;SDS011;6021;51.182;3.160;2023-10-08T08:59:31;11.50;;;7.73;;
11921;SDS011;6021;51.182;3.160;2023-10-08T09:01:59;11.63;;;8.33;;
11921;SDS011;6021;51.182;3.160;2023-10-08T09:04:30;9.93;;;7.07;;
11921;SDS011;6021;51.182;3.160;2023-10-08T09:06:59;14.87;;;9.33;;
11921;SDS011;6021;51.182;3.160;2023-10-08T09:09:35;12.07;;;8.77;;
11921;SDS011;6021;51.182;3.160;2023-10-08T09:12:00;9.77;;;8.17;;
11921;SDS011;6021;51.182;3.160;2023-10-08T09:14:30;11.23;;;8.60;;
11921;SDS011;6021;51.182;3.160;2023-10-08T09:17:01;10.97;;;8.40;;
11921;SDS011;6021;51.182;3.160;2023-10-08T09:19:41;12.83;;;8.83;;
11921;SDS011;6021;51.182;3.160;2023-10-08T09:22:14;11.63;;;8.43;;
11921;SDS011;6021;51.182;3.160;2023-10-08T09:24:40;10.57;;;8.33;;
11921;SDS011;6021;51.182;3.160;2023-10-08T09:27:10;10.33;;;8.40;;
11921;SDS011;6021;51.182;3.160;2023-10-08T09:29:42;11.43;;;8.67;;
11921;SDS011;6021;51.182;3.160;2023-10-08T09:32:16;12.63;;;8.73;;
11921;SDS011;6021;51.182;3.160;2023-10-08T09:34:40;12.77;;;8.40;;
11921;SDS011;6021;51.182;3.160;2023-10-08T09:37:10;12.60;;;8.13;;
11921;SDS011;6021;51.182;3.160;2023-10-08T09:39:39;9.23;;;7.77;;
11921;SDS011;6021;51.182;3.160;2023-10-08T09:42:11;11.40;;;8.10;;
11921;SDS011;6021;51.182;3.160;2023-10-08T09:44:40;11.93;;;7.27;;
11921;SDS011;6021;51.182;3.160;2023-10-08T09:47:09;10.43;;;8.13;;
11921;SDS011;6021;51.182;3.160;2023-10-08T09:49:43;9.83;;;7.70;;
11921;SDS011;6021;51.182;3.160;2023-10-08T09:52:33;13.03;;;8.40;;
11921;SDS011;6021;51.182;3.160;2023-10-08T09:55:08;10.47;;;7.70;;
11921;SDS011;6021;51.182;3.160;2023-10-08T09:57:37;11.27;;;8.47;;
11921;SDS011;6021;51.182;3.160;2023-10-08T10:00:07;12.23;;;8.93;;
11921;SDS011;6021;51.182;3.160;2023-10-08T10:02:41;9.90;;;7.40;;
11921;SDS011;6021;51.182;3.160;2023-10-08T10:05:11;12.17;;;7.70;;
11921;SDS011;6021;51.182;3.160;2023-10-08T10:07:42;12.63;;;7.40;;
11921;SDS011;6021;51.182;3.160;2023-10-08T10:10:26;12.40;;;7.30;;
11921;SDS011;6021;51.182;3.160;2023-10-08T10:13:02;9.83;;;7.27;;
11921;SDS011;6021;51.182;3.160;2023-10-08T10:15:37;13.63;;;8.40;;
11921;SDS011;6021;51.182;3.160;2023-10-08T10:18:48;12.87;;;7.30;;
11921;SDS011;6021;51.182;3.160;2023-10-08T10:26:28;10.90;;;7.40;;
11921;SDS011;6021;51.182;3.160;2023-10-08T10:31:42;12.80;;;8.30;;
11921;SDS011;6021;51.182;3.160;2023-10-08T10:34:13;11.70;;;8.00;;
11921;SDS011;6021;51.182;3.160;2023-10-08T10:36:44;12.73;;;8.80;;
11921;SDS011;6021;51.182;3.160;2023-10-08T10:39:16;12.60;;;8.27;;
11921;SDS011;6021;51.182;3.160;2023-10-08T10:41:57;14.07;;;8.90;;
11921;SDS011;6021;51.182;3.160;2023-10-08T10:44:33;13.23;;;8.63;;
11921;SDS011;6021;51.182;3.160;2023-10-08T10:47:03;12.83;;;9.07;;
11921;SDS011;6021;51.182;3.160;2023-10-08T10:49:46;12.53;;;9.03;;
11921;SDS011;6021;51.182;3.160;2023-10-08T10:52:36;13.10;;;9.50;;
11921;SDS011;6021;51.182;3.160;2023-10-08T10:55:14;13.53;;;9.13;;
11921;SDS011;6021;51.182;3.160;2023-10-08T11:00:23;13.30;;;8.83;;
11921;SDS011;6021;51.182;3.160;2023-10-08T11:03:05;14.50;;;9.03;;
11921;SDS011;6021;51.182;3.160;2023-10-08T11:05:33;12.67;;;8.77;;
11921;SDS011;6021;51.182;3.160;2023-10-08T11:08:04;12.37;;;9.13;;
11921;SDS011;6021;51.182;3.160;2023-10-08T11:10:35;12.23;;;8.57;;
11921;SDS011;6021;51.182;3.160;2023-10-08T11:13:08;11.67;;;8.03;;
11921;SDS011;6021;51.182;3.160;2023-10-08T11:15:44;11.13;;;8.40;;
11921;SDS011;6021;51.182;3.160;2023-10-08T11:18:17;11.87;;;7.80;;
11921;SDS011;6021;51.182;3.160;2023-10-08T11:20:51;12.13;;;7.20;;
11921;SDS011;6021;51.182;3.160;2023-10-08T11:23:36;12.17;;;7.93;;
11921;SDS011;6021;51.182;3.160;2023-10-08T11:26:08;9.63;;;6.73;;
11921;SDS011;6021;51.182;3.160;2023-10-08T11:28:38;10.87;;;7.00;;
11921;SDS011;6021;51.182;3.160;2023-10-08T11:31:10;11.57;;;7.70;;
11921;SDS011;6021;51.182;3.160;2023-10-08T11:33:40;10.40;;;7.67;;
11921;SDS011;6021;51.182;3.160;2023-10-08T11:36:11;10.03;;;7.17;;
11921;SDS011;6021;51.182;3.160;2023-10-08T11:38:45;12.07;;;7.30;;
11921;SDS011;6021;51.182;3.160;2023-10-08T11:41:19;9.77;;;6.80;;
11921;SDS011;6021;51.182;3.160;2023-10-08T11:43:49;9.80;;;6.90;;
11921;SDS011;6021;51.182;3.160;2023-10-08T11:46:20;10.33;;;6.93;;
11921;SDS011;6021;51.182;3.160;2023-10-08T11:48:52;11.63;;;8.20;;
11921;SDS011;6021;51.182;3.160;2023-10-08T11:51:23;11.27;;;8.03;;
11921;SDS011;6021;51.182;3.160;2023-10-08T11:53:52;12.03;;;8.20;;
11921;SDS011;6021;51.182;3.160;2023-10-08T11:56:20;12.03;;;7.43;;
11921;SDS011;6021;51.182;3.160;2023-10-08T11:58:49;10.73;;;7.10;;
11921;SDS011;6021;51.182;3.160;2023-10-08T12:01:19;10.97;;;7.40;;
11921;SDS011;6021;51.182;3.160;2023-10-08T12:03:47;11.43;;;7.33;;
11921;SDS011;6021;51.182;3.160;2023-10-08T12:06:18;11.53;;;6.93;;
11921;SDS011;6021;51.182;3.160;2023-10-08T12:08:47;11.07;;;7.43;;
11921;SDS011;6021;51.182;3.160;2023-10-08T12:11:17;12.23;;;7.00;;
11921;SDS011;6021;51.182;3.160;2023-10-08T12:13:48;9.23;;;6.80;;
11921;SDS011;6021;51.182;3.160;2023-10-08T12:16:17;8.90;;;6.40;;
11921;SDS011;6021;51.182;3.160;2023-10-08T12:18:51;9.00;;;6.50;;
11921;SDS011;6021;51.182;3.160;2023-10-08T12:21:21;11.80;;;6.90;;
11921;SDS011;6021;51.182;3.160;2023-10-08T12:23:51;13.97;;;6.80;;
11921;SDS011;6021;51.182;3.160;2023-10-08T12:26:21;9.83;;;6.87;;
11921;SDS011;6021;51.182;3.160;2023-10-08T12:28:50;9.90;;;7.03;;
11921;SDS011;6021;51.182;3.160;2023-10-08T12:31:20;10.10;;;6.60;;
11921;SDS011;6021;51.182;3.160;2023-10-08T12:33:50;9.57;;;6.53;;
11921;SDS011;6021;51.182;3.160;2023-10-08T12:36:20;9.20;;;6.40;;
11921;SDS011;6021;51.182;3.160;2023-10-08T12:38:52;7.93;;;6.03;;
11921;SDS011;6021;51.182;3.160;2023-10-08T12:41:26;10.30;;;6.83;;
11921;SDS011;6021;51.182;3.160;2023-10-08T12:43:54;17.10;;;6.93;;
11921;SDS011;6021;51.182;3.160;2023-10-08T12:46:24;7.30;;;5.93;;
11921;SDS011;6021;51.182;3.160;2023-10-08T12:48:53;8.83;;;6.53;;
11921;SDS011;6021;51.182;3.160;2023-10-08T12:51:22;10.37;;;7.40;;
11921;SDS011;6021;51.182;3.160;2023-10-08T12:53:52;9.97;;;7.37;;
11921;SDS011;6021;51.182;3.160;2023-10-08T12:56:30;10.23;;;6.70;;
11921;SDS011;6021;51.182;3.160;2023-10-08T12:59:01;8.93;;;6.27;;
11921;SDS011;6021;51.182;3.160;2023-10-08T13:01:37;9.13;;;7.13;;
11921;SDS011;6021;51.182;3.160;2023-10-08T13:04:07;8.43;;;6.97;;
11921;SDS011;6021;51.182;3.160;2023-10-08T13:06:37;10.27;;;6.97;;
11921;SDS011;6021;51.182;3.160;2023-10-08T13:09:06;9.03;;;6.20;;
11921;SDS011;6021;51.182;3.160;2023-10-08T13:11:39;8.70;;;6.70;;
11921;SDS011;6021;51.182;3.160;2023-10-08T13:14:09;11.93;;;6.63;;
11921;SDS011;6021;51.182;3.160;2023-10-08T13:16:40;9.90;;;6.63;;
11921;SDS011;6021;51.182;3.160;2023-10-08T13:19:07;9.30;;;6.60;;
11921;SDS011;6021;51.182;3.160;2023-10-08T13:21:36;8.80;;;6.10;;
11921;SDS011;6021;51.182;3.160;2023-10-08T13:24:04;9.20;;;6.20;;
11921;SDS011;6021;51.182;3.160;2023-10-08T13:26:35;9.87;;;6.23;;
11921;SDS011;6021;51.182;3.160;2023-10-08T13:29:05;9.63;;;6.37;;
11921;SDS011;6021;51.182;3.160;2023-10-08T13:31:35;8.60;;;6.10;;
11921;SDS011;6021;51.182;3.160;2023-10-08T13:34:03;7.87;;;5.73;;
11921;SDS011;6021;51.182;3.160;2023-10-08T13:36:34;8.60;;;6.23;;
11921;SDS011;6021;51.182;3.160;2023-10-08T13:39:06;10.53;;;6.47;;
11921;SDS011;6021;51.182;3.160;2023-10-08T13:44:09;10.27;;;6.60;;
11921;SDS011;6021;51.182;3.160;2023-10-08T13:46:39;8.30;;;6.13;;
11921;SDS011;6021;51.182;3.160;2023-10-08T13:49:09;10.73;;;6.33;;
11921;SDS011;6021;51.182;3.160;2023-10-08T13:51:37;10.90;;;6.13;;
11921;SDS011;6021;51.182;3.160;2023-10-08T13:54:06;8.03;;;5.33;;
11921;SDS011;6021;51.182;3.160;2023-10-08T13:56:36;8.10;;;5.77;;
11921;SDS011;6021;51.182;3.160;2023-10-08T13:59:09;8.90;;;5.33;;
11921;SDS011;6021;51.182;3.160;2023-10-08T14:01:40;7.07;;;4.70;;
11921;SDS011;6021;51.182;3.160;2023-10-08T14:04:17;7.33;;;4.80;;
11921;SDS011;6021;51.182;3.160;2023-10-08T14:06:49;9.50;;;5.20;;
11921;SDS011;6021;51.182;3.160;2023-10-08T14:09:21;7.80;;;5.10;;
11921;SDS011;6021;51.182;3.160;2023-10-08T14:11:52;8.20;;;4.90;;
11921;SDS011;6021;51.182;3.160;2023-10-08T14:14:22;8.23;;;6.40;;
11921;SDS011;6021;51.182;3.160;2023-10-08T14:16:54;8.93;;;5.10;;
11921;SDS011;6021;51.182;3.160;2023-10-08T14:19:25;7.60;;;4.63;;
11921;SDS011;6021;51.182;3.160;2023-10-08T14:22:05;7.47;;;4.90;;
11921;SDS011;6021;51.182;3.160;2023-10-08T14:24:35;7.70;;;5.00;;
11921;SDS011;6021;51.182;3.160;2023-10-08T14:27:05;7.80;;;4.90;;
11921;SDS011;6021;51.182;3.160;2023-10-08T14:29:41;7.67;;;4.57;;
11921;SDS011;6021;51.182;3.160;2023-10-08T14:32:14;8.53;;;4.80;;
11921;SDS011;6021;51.182;3.160;2023-10-08T14:34:42;8.37;;;4.70;;
11921;SDS011;6021;51.182;3.160;2023-10-08T14:37:15;15.20;;;5.57;;
11921;SDS011;6021;51.182;3.160;2023-10-08T14:40:02;53.17;;;8.67;;
11921;SDS011;6021;51.182;3.160;2023-10-08T14:42:48;23.13;;;5.80;;
11921;SDS011;6021;51.182;3.160;2023-10-08T14:45:23;12.60;;;5.00;;
11921;SDS011;6021;51.182;3.160;2023-10-08T14:47:54;14.37;;;5.00;;
11921;SDS011;6021;51.182;3.160;2023-10-08T14:50:23;5.23;;;4.33;;
11921;SDS011;6021;51.182;3.160;2023-10-08T14:52:56;6.83;;;4.00;;
11921;SDS011;6021;51.182;3.160;2023-10-08T14:55:26;6.97;;;4.43;;
11921;SDS011;6021;51.182;3.160;2023-10-08T14:57:56;6.57;;;4.17;;
11921;SDS011;6021;51.182;3.160;2023-10-08T15:00:28;7.33;;;4.17;;
11921;SDS011;6021;51.182;3.160;2023-10-08T15:02:58;6.80;;;4.70;;
11921;SDS011;6021;51.182;3.160;2023-10-08T15:05:28;6.20;;;4.33;;
11921;SDS011;6021;51.182;3.160;2023-10-08T15:07:57;10.87;;;4.93;;
11921;SDS011;6021;51.182;3.160;2023-10-08T15:10:26;10.50;;;5.10;;
11921;SDS011;6021;51.182;3.160;2023-10-08T15:12:55;6.93;;;4.60;;
11921;SDS011;6021;51.182;3.160;2023-10-08T15:15:24;8.13;;;4.70;;
11921;SDS011;6021;51.182;3.160;2023-10-08T15:17:54;9.50;;;4.63;;
11921;SDS011;6021;51.182;3.160;2023-10-08T15:20:23;7.43;;;4.40;;
11921;SDS011;6021;51.182;3.160;2023-10-08T15:22:51;7.87;;;4.70;;
11921;SDS011;6021;51.182;3.160;2023-10-08T15:25:19;7.43;;;4.27;;
11921;SDS011;6021;51.182;3.160;2023-10-08T15:27:49;7.40;;;4.50;;
11921;SDS011;6021;51.182;3.160;2023-10-08T15:30:18;5.90;;;4.10;;
11921;SDS011;6021;51.182;3.160;2023-10-08T15:32:47;6.30;;;4.00;;
11921;SDS011;6021;51.182;3.160;2023-10-08T15:35:16;8.23;;;4.80;;
11921;SDS011;6021;51.182;3.160;2023-10-08T15:37:50;7.63;;;4.10;;